Time;durP1;ratioP1;P1;durP2;ratioP2;P2;SDS_P1;SDS_P2;PMS_P1;PMS_P2;Temp;Humidity;BMP_temperature;BMP_pressure;BME280_temperature;BME280_humidity;BME280_pressure;Samples;Min_cycle;Max_cycle;Signal;HPM_P1;HPM_P2
2021/08/08 00:00:06;;;;;;;6.92;3.62;;;;;;;18.02;63.79;99291.27;1761903;80;21008;-43
2021/08/08 00:02:37;;;;;;;4.12;2.95;;;;;;;18.01;63.57;99289.73;1763564;80;21001;-42
2021/08/08 00:05:08;;;;;;;6.50;3.00;;;;;;;17.95;63.46;99287.26;1738678;81;20977;-42
2021/08/08 00:07:35;;;;;;;4.12;2.92;;;;;;;17.91;63.59;99288.65;1759089;80;21004;-42
2021/08/08 00:10:03;;;;;;;4.70;2.75;;;;;;;17.88;63.75;99285.95;1775698;80;21506;-43
2021/08/08 00:12:31;;;;;;;;;;;;;;;17.89;63.79;99295.75;1767173;80;20928;-42
2021/08/08 00:14:58;;;;;;;4.62;2.95;;;;;;;17.92;63.59;99293.55;1778521;79;20128;-42
2021/08/08 00:17:24;;;;;;;5.08;2.75;;;;;;;17.86;63.71;99293.84;1779306;80;21088;-42
2021/08/08 00:19:51;;;;;;;4.17;2.80;;;;;;;17.88;63.61;99287.33;1765860;80;21506;-42
2021/08/08 00:22:17;;;;;;;6.75;2.85;;;;;;;17.90;63.34;99284.97;1775734;79;21134;-43
2021/08/08 00:24:44;;;;;;;4.22;3.10;;;;;;;17.89;63.00;99279.30;1779055;79;21012;-42
2021/08/08 00:27:12;;;;;;;3.72;3.00;;;;;;;17.87;63.06;99281.06;1798469;79;20998;-42
2021/08/08 00:29:40;;;;;;;3.27;2.72;;;;;;;17.86;63.09;99282.86;1788466;79;21613;-42
2021/08/08 00:32:08;;;;;;;6.78;2.87;;;;;;;17.84;62.98;99292.08;1804539;79;21031;-43
2021/08/08 00:34:35;;;;;;;6.55;2.70;;;;;;;17.80;63.02;99288.80;1766451;79;21122;-43
2021/08/08 00:37:03;;;;;;;3.15;2.50;;;;;;;17.75;62.96;99290.62;1771082;79;21530;-42
2021/08/08 00:39:31;;;;;;;8.38;3.17;;;;;;;17.70;62.88;99295.77;1773057;81;21526;-42
2021/08/08 00:41:58;;;;;;;4.85;2.90;;;;;;;17.58;63.23;99301.73;1750155;79;21119;-42
2021/08/08 00:44:27;;;;;;;5.78;3.20;;;;;;;17.44;63.75;99302.66;1737021;80;21560;-42
2021/08/08 00:46:54;;;;;;;6.25;3.90;;;;;;;17.42;63.87;99309.15;1770285;80;21690;-42
2021/08/08 00:49:21;;;;;;;3.95;3.20;;;;;;;17.41;64.11;99306.80;1772823;80;21493;-42
2021/08/08 00:51:50;;;;;;;4.43;3.23;;;;;;;17.36;64.22;99303.33;1765741;80;21038;-43
2021/08/08 00:54:18;;;;;;;3.83;3.25;;;;;;;17.36;64.03;99306.66;1793116;78;20948;-42
2021/08/08 00:56:46;;;;;;;5.78;3.98;;;;;;;17.29;64.30;99303.38;1769096;78;21032;-42
2021/08/08 00:59:13;;;;;;;3.90;3.33;;;;;;;17.23;64.50;99300.13;1797488;78;21200;-42
2021/08/08 01:01:44;;;;;;;4.15;3.22;;;;;;;17.22;64.58;99306.79;1824599;78;20865;-42
2021/08/08 01:04:20;;;;;;;4.40;3.10;;;;;;;17.20;64.33;99307.77;1822765;78;21479;-42
2021/08/08 01:06:58;;;;;;;3.95;2.60;;;;;;;17.18;64.21;99305.45;1793299;79;21503;-42
2021/08/08 01:09:26;;;;;;;4.33;2.60;;;;;;;17.23;64.27;99301.50;1802811;78;20970;-42
2021/08/08 01:11:54;;;;;;;5.33;2.87;;;;;;;17.26;64.03;99303.42;1796454;79;21181;-42
2021/08/08 01:14:21;;;;;;;4.20;2.58;;;;;;;17.29;63.58;99297.12;1821833;78;21051;-42
2021/08/08 01:16:50;;;;;;;5.92;2.85;;;;;;;17.27;63.27;99297.55;1794122;80;21013;-42
2021/08/08 01:19:21;;;;;;;5.60;2.83;;;;;;;17.25;63.07;99302.64;1808675;78;21083;-42
2021/08/08 01:21:48;;;;;;;5.07;3.30;;;;;;;17.22;63.07;99300.72;1783613;78;21070;-43
2021/08/08 01:24:16;;;;;;;7.00;3.40;;;;;;;17.18;63.27;99308.78;1718194;81;21877;-42
2021/08/08 01:26:45;;;;;;;6.33;3.00;;;;;;;17.11;64.01;99307.46;1749665;80;21493;-42
2021/08/08 01:29:12;;;;;;;4.62;2.90;;;;;;;17.04;64.26;99313.77;1744910;81;20980;-42
2021/08/08 01:31:50;;;;;;;4.30;3.22;;;;;;;17.06;64.37;99313.38;1753685;80;21076;-42
2021/08/08 01:34:17;;;;;;;3.47;2.65;;;;;;;17.09;64.55;99318.06;1731283;81;21622;-42
2021/08/08 01:36:46;;;;;;;4.15;3.05;;;;;;;17.11;64.53;99319.20;1746813;82;21128;-42
2021/08/08 01:39:18;;;;;;;6.00;2.80;;;;;;;17.13;64.35;99316.06;1726569;80;20946;-42
2021/08/08 01:41:55;;;;;;;5.62;3.50;;;;;;;17.14;63.84;99312.90;1758275;80;21021;-42
2021/08/08 01:44:29;;;;;;;3.98;2.87;;;;;;;17.10;63.48;99308.64;1756462;80;20933;-42
2021/08/08 01:46:57;;;;;;;6.00;3.87;;;;;;;17.04;64.07;99313.77;1757803;80;21046;-42
2021/08/08 01:49:29;;;;;;;3.47;3.17;;;;;;;16.94;64.62;99319.52;1758093;80;21222;-42
2021/08/08 01:51:57;;;;;;;4.45;3.08;;;;;;;16.88;65.06;99325.84;1763615;79;20997;-42
2021/08/08 01:54:25;;;;;;;5.55;2.87;;;;;;;16.88;64.82;99322.52;1777554;79;20969;-42
2021/08/08 01:56:54;;;;;;;6.37;2.92;;;;;;;16.95;63.99;99327.14;1766349;79;21032;-42
2021/08/08 01:59:22;;;;;;;3.47;2.58;;;;;;;16.98;63.89;99328.31;1758594;81;21535;-42
2021/08/08 02:01:50;;;;;;;3.95;2.60;;;;;;;16.95;63.69;99323.81;1739471;79;21125;-42
2021/08/08 02:04:22;;;;;;;3.20;2.60;;;;;;;16.91;63.52;99324.44;1759795;80;21406;-42
2021/08/08 02:06:50;;;;;;;6.28;3.27;;;;;;;16.90;63.29;99331.67;1762080;81;21055;-42
2021/08/08 02:09:20;;;;;;;6.53;3.40;;;;;;;16.87;63.35;99334.64;1770938;79;21016;-42
2021/08/08 02:11:49;;;;;;;4.62;2.98;;;;;;;16.87;63.47;99335.23;1775094;79;21758;-42
2021/08/08 02:14:17;;;;;;;3.80;3.10;;;;;;;16.84;63.50;99341.52;1756127;79;21079;-42
2021/08/08 02:16:45;;;;;;;2.90;2.35;;;;;;;16.79;63.62;99335.88;1782878;80;21009;-42
2021/08/08 02:19:13;;;;;;;3.72;2.80;;;;;;;16.74;63.78;99330.05;1745728;79;21053;-42
2021/08/08 02:21:42;;;;;;;5.17;2.42;;;;;;;16.71;63.78;99327.50;1725279;83;21024;-42
2021/08/08 02:24:09;;;;;;;3.60;2.52;;;;;;;16.66;63.74;99334.77;1746137;80;21033;-42
2021/08/08 02:26:38;;;;;;;3.52;2.70;;;;;;;16.63;63.27;99345.16;1746153;82;21981;-42
2021/08/08 02:29:07;;;;;;;3.87;2.67;;;;;;;16.61;63.26;99342.62;1767241;80;21495;-42
2021/08/08 02:31:41;;;;;;;5.50;2.70;;;;;;;16.59;63.32;99345.78;1749216;81;20982;-42
2021/08/08 02:34:12;;;;;;;5.00;3.25;;;;;;;16.56;63.49;99346.53;1738230;80;21051;-42
2021/08/08 02:36:41;;;;;;;6.60;2.95;;;;;;;16.51;63.71;99339.52;1775194;79;21119;-42
2021/08/08 02:39:08;;;;;;;2.58;2.30;;;;;;;16.43;63.96;99342.69;1721774;80;21584;-42
2021/08/08 02:41:35;;;;;;;2.55;2.05;;;;;;;16.38;63.64;99350.73;1753110;81;20977;-42
2021/08/08 02:44:04;;;;;;;3.55;2.40;;;;;;;16.40;63.35;99364.02;1763843;79;21004;-42
2021/08/08 02:46:30;;;;;;;3.08;2.12;;;;;;;16.38;63.40;99361.67;1751480;80;20928;-42
2021/08/08 02:48:58;;;;;;;3.42;2.20;;;;;;;16.38;63.48;99360.89;1754850;81;21057;-42
2021/08/08 02:51:26;;;;;;;3.87;2.70;;;;;;;16.37;63.54;99353.27;1743585;80;21101;-42
2021/08/08 02:53:53;;;;;;;2.58;2.35;;;;;;;16.38;63.44;99352.69;1757631;80;20925;-42
2021/08/08 02:56:20;;;;;;;6.42;2.77;;;;;;;16.36;63.37;99351.70;1757401;80;21060;-42
2021/08/08 02:58:49;;;;;;;4.08;2.47;;;;;;;16.35;63.29;99356.23;1779999;79;21012;-42
2021/08/08 03:01:15;;;;;;;6.62;2.83;;;;;;;16.35;63.31;99350.17;1768856;79;21037;-42
2021/08/08 03:03:42;;;;;;;3.05;2.37;;;;;;;16.36;63.61;99349.59;1779053;79;21098;-42
2021/08/08 03:06:12;;;;;;;4.65;2.50;;;;;;;16.39;63.75;99350.15;1781311;80;21004;-42
2021/08/08 03:08:42;;;;;;;3.55;2.47;;;;;;;16.45;63.78;99340.35;1769788;79;20984;-42
2021/08/08 03:11:10;;;;;;;3.45;2.50;;;;;;;16.51;64.05;99346.94;1766941;79;20972;-42
2021/08/08 03:13:38;;;;;;;2.67;2.10;;;;;;;16.53;64.08;99347.34;1743395;79;21115;-42
2021/08/08 03:16:06;;;;;;;4.00;2.50;;;;;;;16.56;64.00;99353.95;1778269;79;21104;-42
2021/08/08 03:18:33;;;;;;;4.90;2.50;;;;;;;16.56;64.03;99350.63;1772147;79;20950;-42
2021/08/08 03:21:01;;;;;;;3.77;2.30;;;;;;;16.58;64.24;99356.53;1765918;79;20968;-42
2021/08/08 03:23:29;;;;;;;6.05;2.80;;;;;;;16.59;64.50;99355.94;1765844;79;20977;-42
2021/08/08 03:25:56;;;;;;;3.90;2.72;;;;;;;16.56;64.96;99354.73;1749046;79;21091;-42
2021/08/08 03:28:23;;;;;;;3.00;2.50;;;;;;;16.57;65.19;99353.56;1751679;79;21181;-42
2021/08/08 03:30:51;;;;;;;4.67;2.83;;;;;;;16.63;65.36;99360.22;1765858;79;21012;-42
2021/08/08 03:33:18;;;;;;;5.00;2.98;;;;;;;16.70;65.41;99357.42;1735270;80;21241;-42
2021/08/08 03:35:45;;;;;;;4.50;3.15;;;;;;;16.72;65.55;99355.08;1769337;79;21112;-42
2021/08/08 03:38:13;;;;;;;3.55;3.08;;;;;;;16.73;65.85;99358.01;1779196;79;21628;-42
2021/08/08 03:40:40;;;;;;;3.47;2.98;;;;;;;16.68;66.33;99363.13;1774425;79;21122;-42
2021/08/08 03:43:07;;;;;;;3.70;3.20;;;;;;;16.60;66.65;99357.50;1774933;79;20949;-42
2021/08/08 03:45:34;;;;;;;4.37;3.30;;;;;;;16.61;66.80;99362.56;1778334;79;21025;-42
2021/08/08 03:48:01;;;;;;;5.25;3.75;;;;;;;16.34;67.12;99314.99;1773363;80;20952;-42
2021/08/08 03:50:30;;;;;;;4.33;3.72;;;;;;;16.65;67.49;99366.08;1760853;81;21546;-42
2021/08/08 03:52:57;;;;;;;4.85;3.33;;;;;;;16.64;67.77;99360.41;1770415;79;21085;-42
2021/08/08 03:55:23;;;;;;;3.37;3.08;;;;;;;16.68;67.98;99357.64;1782147;79;20997;-42
2021/08/08 03:57:50;;;;;;;3.45;2.70;;;;;;;16.76;68.01;99359.94;1764740;79;21108;-42
2021/08/08 04:00:19;;;;;;;3.70;3.08;;;;;;;16.88;67.89;99355.96;1745571;80;20925;-42
2021/08/08 04:02:46;;;;;;;4.60;2.70;;;;;;;17.00;67.87;99363.69;1764982;80;21025;-42
2021/08/08 04:05:15;;;;;;;4.15;2.40;;;;;;;17.13;67.68;99366.74;1746361;81;21130;-42
2021/08/08 04:07:42;;;;;;;3.08;2.50;;;;;;;17.17;67.67;99355.16;1744627;80;20945;-42
2021/08/08 04:10:10;;;;;;;5.40;2.60;;;;;;;17.20;67.62;99363.94;1760331;81;20941;-42
2021/08/08 04:12:39;;;;;;;4.50;2.70;;;;;;;17.23;67.76;99360.41;1749896;80;20961;-42
2021/08/08 04:15:07;;;;;;;3.70;3.10;;;;;;;17.27;67.70;99360.56;1765909;80;21041;-42
2021/08/08 04:17:35;;;;;;;4.83;3.37;;;;;;;17.31;67.67;99363.27;1764134;81;21076;-42
2021/08/08 04:20:04;;;;;;;5.80;3.30;;;;;;;17.40;67.52;99370.42;1745449;82;20994;-42
2021/08/08 04:22:30;;;;;;;5.97;3.65;;;;;;;17.49;67.54;99369.37;1745446;81;21031;-42
2021/08/08 04:24:57;;;;;;;3.37;3.00;;;;;;;17.54;67.40;99368.15;1758498;81;21505;-42
2021/08/08 04:27:24;;;;;;;3.52;3.08;;;;;;;17.59;67.37;99368.52;1750927;81;21020;-42
2021/08/08 04:29:51;;;;;;;4.35;2.83;;;;;;;17.62;67.44;99369.07;1742551;81;21743;-42
2021/08/08 04:32:18;;;;;;;2.55;2.35;;;;;;;17.63;67.49;99369.27;1767383;79;20988;-42
2021/08/08 04:34:45;;;;;;;4.22;2.33;;;;;;;17.71;67.70;99371.36;1758715;79;21091;-42
2021/08/08 04:37:14;;;;;;;2.95;2.37;;;;;;;17.79;67.83;99363.23;1759349;81;21000;-42
2021/08/08 04:39:41;;;;;;;3.17;2.70;;;;;;;17.81;68.04;99369.86;1766680;81;21559;-42
2021/08/08 04:42:08;;;;;;;5.95;3.25;;;;;;;17.89;68.13;99364.31;1763758;81;21149;-42
2021/08/08 04:44:36;;;;;;;4.37;3.05;;;;;;;17.98;68.12;99363.23;1761879;79;21654;-42
2021/08/08 04:47:03;;;;;;;4.65;2.92;;;;;;;18.07;67.82;99379.39;1764479;81;21008;-42
2021/08/08 04:49:30;;;;;;;3.83;2.92;;;;;;;18.18;67.90;99380.05;1740037;81;21008;-42
2021/08/08 04:51:59;;;;;;;6.17;3.02;;;;;;;18.29;67.96;99388.17;1758702;81;21088;-42
2021/08/08 04:54:28;;;;;;;4.42;3.02;;;;;;;18.36;67.62;99381.20;1767173;81;21207;-42
2021/08/08 04:56:55;;;;;;;4.60;2.83;;;;;;;18.43;67.26;99377.02;1756423;81;20992;-42
2021/08/08 04:59:21;;;;;;;3.12;2.45;;;;;;;18.48;67.26;99375.78;1763200;81;21039;-42
2021/08/08 05:01:50;;;;;;;3.35;2.40;;;;;;;18.56;67.14;99382.16;1739018;80;21038;-42
2021/08/08 05:04:17;;;;;;;5.92;2.90;;;;;;;18.65;66.86;99379.69;1768703;80;21064;-42
2021/08/08 05:06:43;;;;;;;3.08;2.50;;;;;;;18.76;66.89;99383.66;1769563;79;21135;-42
2021/08/08 05:09:12;;;;;;;6.03;2.40;;;;;;;18.83;66.67;99381.42;1775279;80;21583;-42
2021/08/08 05:11:39;;;;;;;2.65;1.92;;;;;;;18.91;66.55;99381.49;1801018;79;21077;-42
2021/08/08 05:14:05;;;;;;;3.98;2.10;;;;;;;18.97;66.29;99380.62;1717483;83;20976;-42
2021/08/08 05:16:34;;;;;;;3.58;2.00;;;;;;;19.04;66.21;99381.88;1780439;79;21036;-42
2021/08/08 05:19:02;;;;;;;2.33;1.85;;;;;;;19.16;66.45;99379.75;1769942;81;20940;-42
2021/08/08 05:21:29;;;;;;;3.33;1.90;;;;;;;19.24;65.90;99375.09;1769946;81;20971;-42
2021/08/08 05:23:56;;;;;;;2.70;1.95;;;;;;;19.31;65.84;99377.73;1780217;79;21063;-42
2021/08/08 05:26:22;;;;;;;2.42;1.55;;;;;;;19.36;65.77;99369.02;1759787;79;21044;-42
2021/08/08 05:28:49;;;;;;;2.42;1.72;;;;;;;19.41;65.64;99372.64;1769484;80;21033;-42
2021/08/08 05:31:16;;;;;;;1.87;1.40;;;;;;;19.51;65.40;99371.71;1769708;81;21122;-43
2021/08/08 05:33:43;;;;;;;2.87;1.80;;;;;;;19.65;65.33;99366.59;1756821;79;21008;-42
2021/08/08 05:36:09;;;;;;;4.85;1.90;;;;;;;19.79;65.22;99365.55;1769763;81;20912;-42
2021/08/08 05:38:37;;;;;;;2.67;1.77;;;;;;;19.88;64.87;99367.14;1769677;81;21028;-42
2021/08/08 05:41:04;;;;;;;1.75;1.50;;;;;;;19.96;64.68;99366.58;1769798;81;20997;-43
2021/08/08 05:43:30;;;;;;;3.30;1.52;;;;;;;20.05;64.50;99370.14;1809094;77;21530;-42
2021/08/08 05:45:58;;;;;;;2.47;1.80;;;;;;;20.15;64.41;99366.41;1797200;79;20971;-43
2021/08/08 05:48:25;;;;;;;2.52;1.50;;;;;;;20.22;64.17;99365.50;1794564;79;21511;-42
2021/08/08 05:50:53;;;;;;;2.90;1.50;;;;;;;20.32;63.50;99365.32;1810308;77;21013;-43
2021/08/08 05:53:20;;;;;;;2.55;1.40;;;;;;;20.46;62.29;99364.24;1835114;77;21056;-42
2021/08/08 05:55:49;;;;;;;4.15;1.85;;;;;;;20.60;61.78;99367.29;1843950;77;20977;-42
2021/08/08 05:58:17;;;;;;;4.20;1.75;;;;;;;20.70;61.13;99373.17;1830779;77;21005;-43
2021/08/08 06:00:45;;;;;;;3.98;2.00;;;;;;;20.78;60.73;99371.80;1807209;77;20956;-43
2021/08/08 06:03:12;;;;;;;2.52;1.90;;;;;;;20.89;60.89;99372.34;1800364;77;20972;-42
2021/08/08 06:05:41;;;;;;;2.60;1.95;;;;;;;21.01;61.08;99371.66;1813836;77;21689;-43
2021/08/08 06:08:07;;;;;;;6.70;1.77;;;;;;;21.13;60.90;99369.64;1743564;79;21085;-43
2021/08/08 06:10:34;;;;;;;4.42;2.02;;;;;;;21.22;60.49;99369.03;1792951;79;20960;-43
2021/08/08 06:13:01;;;;;;;4.25;2.08;;;;;;;21.30;59.85;99375.17;1797353;79;21041;-43
2021/08/08 06:15:28;;;;;;;2.83;2.20;;;;;;;21.38;58.72;99381.45;1808891;79;21503;-43
2021/08/08 06:17:57;;;;;;;2.83;2.15;;;;;;;21.43;58.70;99376.80;1808298;79;20992;-43
2021/08/08 06:20:24;;;;;;;3.92;2.50;;;;;;;21.47;58.29;99378.86;1804901;77;21106;-43
2021/08/08 06:22:51;;;;;;;2.37;1.80;;;;;;;21.52;58.10;99380.32;1782531;79;21613;-43
2021/08/08 06:25:18;;;;;;;5.17;2.08;;;;;;;21.59;57.96;99382.91;1790765;78;20971;-43
2021/08/08 06:27:45;;;;;;;6.33;2.20;;;;;;;21.63;57.51;99382.22;1795415;79;21030;-43
2021/08/08 06:30:13;;;;;;;5.65;2.05;;;;;;;21.69;57.85;99386.75;1790972;79;21061;-43
2021/08/08 06:32:40;;;;;;;6.90;2.20;;;;;;;21.77;57.71;99384.60;1803008;79;21521;-43
2021/08/08 06:35:09;;;;;;;2.80;2.10;;;;;;;21.84;57.53;99384.40;1794909;78;21543;-43
2021/08/08 06:37:36;;;;;;;3.12;2.10;;;;;;;21.94;57.29;99389.50;1781529;79;21092;-43
2021/08/08 06:40:03;;;;;;;5.30;2.45;;;;;;;22.02;56.58;99387.52;1760394;79;21502;-43
2021/08/08 06:42:30;;;;;;;2.67;2.08;;;;;;;22.12;56.66;99396.72;1774197;79;21021;-43
2021/08/08 06:44:58;;;;;;;7.53;2.40;;;;;;;22.20;55.24;99394.52;1774743;79;21952;-43
2021/08/08 06:47:25;;;;;;;3.40;2.08;;;;;;;22.28;55.10;99390.34;1770932;79;21610;-43
2021/08/08 06:49:52;;;;;;;4.10;2.40;;;;;;;22.37;53.91;99395.39;1749606;79;21068;-43
2021/08/08 06:52:19;;;;;;;3.37;2.10;;;;;;;22.45;53.47;99394.59;1745707;82;21060;-43
2021/08/08 06:54:46;;;;;;;3.40;1.98;;;;;;;22.53;53.47;99391.19;1742712;81;21000;-43
2021/08/08 06:57:24;;;;;;;2.95;2.10;;;;;;;22.63;52.39;99400.38;1766117;79;21149;-43
2021/08/08 06:59:52;;;;;;;;;;;;;;;22.73;52.54;99398.54;1769751;79;20933;-43
2021/08/08 07:02:20;;;;;;;2.55;2.12;;;;;;;22.84;52.40;99405.31;1784475;79;20190;-43
2021/08/08 07:04:47;;;;;;;3.27;2.20;;;;;;;22.87;52.03;99403.64;1780964;79;20921;-43
2021/08/08 07:07:15;;;;;;;2.50;2.10;;;;;;;23.00;51.50;99403.62;1793944;79;21001;-43
2021/08/08 07:09:43;;;;;;;4.92;2.25;;;;;;;23.09;50.46;99403.13;1808457;79;21192;-44
2021/08/08 07:12:10;;;;;;;4.22;1.85;;;;;;;23.17;49.88;99406.47;1795915;79;20910;-43
2021/08/08 07:14:40;;;;;;;2.20;1.75;;;;;;;23.23;49.64;99401.33;1804550;77;21004;-43
2021/08/08 07:17:08;;;;;;;3.52;1.90;;;;;;;23.31;49.03;99399.09;1793925;79;20996;-43
2021/08/08 07:19:35;;;;;;;3.60;2.02;;;;;;;23.39;48.58;99399.02;1808089;77;21486;-43
2021/08/08 07:22:04;;;;;;;4.40;2.02;;;;;;;23.50;48.51;99399.48;1803181;79;21016;-43
2021/08/08 07:24:32;;;;;;;3.33;2.05;;;;;;;23.60;47.41;99397.58;1805125;79;20939;-43
2021/08/08 07:27:00;;;;;;;3.83;1.95;;;;;;;23.66;47.58;99408.26;1813622;79;21048;-43
2021/08/08 07:29:27;;;;;;;3.17;1.90;;;;;;;23.78;48.35;99408.22;1812375;79;20913;-43
2021/08/08 07:31:56;;;;;;;2.50;2.10;;;;;;;23.88;48.34;99407.69;1814857;79;21044;-43
2021/08/08 07:34:24;;;;;;;2.95;1.90;;;;;;;24.02;48.51;99407.80;1810185;79;21137;-43
2021/08/08 07:36:51;;;;;;;3.15;2.00;;;;;;;24.14;47.24;99406.98;1802127;79;21523;-43
2021/08/08 07:40:24;;;;;;;3.47;1.95;;;;;;;24.37;46.06;99398.25;1783772;78;22712;-42
2021/08/08 07:42:52;;;;;;;3.00;2.05;;;;;;;24.40;46.07;99405.65;1753553;80;21011;-43
2021/08/08 07:45:21;;;;;;;2.98;1.85;;;;;;;24.49;44.96;99402.19;1775695;80;21132;-42
2021/08/08 07:47:49;;;;;;;2.75;1.85;;;;;;;24.55;45.83;99403.12;1758583;80;20957;-43
2021/08/08 07:50:16;;;;;;;3.85;2.08;;;;;;;24.66;45.14;99404.28;1750269;80;20973;-43
2021/08/08 07:52:45;;;;;;;3.12;1.60;;;;;;;24.78;44.21;99401.28;1755634;80;20974;-42
2021/08/08 07:55:13;;;;;;;2.22;1.72;;;;;;;24.90;43.76;99412.13;1760520;80;20984;-42
2021/08/08 07:57:40;;;;;;;4.85;2.00;;;;;;;25.03;43.65;99414.95;1744424;80;21127;-42
2021/08/08 08:00:09;;;;;;;2.60;2.02;;;;;;;25.14;43.42;99413.16;1743475;80;21019;-43
2021/08/08 08:02:38;;;;;;;2.25;1.70;;;;;;;25.26;42.86;99420.62;1691511;83;20984;-43
2021/08/08 08:05:06;;;;;;;4.33;2.20;;;;;;;25.39;42.66;99419.88;1704631;83;21074;-43
2021/08/08 08:07:34;;;;;;;3.67;2.10;;;;;;;25.52;41.93;99422.52;1689885;82;21566;-43
2021/08/08 08:10:01;;;;;;;1.85;1.50;;;;;;;25.67;42.02;99416.56;1681250;85;21149;-43
2021/08/08 08:12:28;;;;;;;3.27;1.85;;;;;;;25.84;42.25;99418.45;1681305;85;21089;-43
2021/08/08 08:14:55;;;;;;;1.87;1.50;;;;;;;26.02;41.25;99421.85;1693137;84;21044;-43
2021/08/08 08:17:24;;;;;;;2.83;1.60;;;;;;;26.14;40.27;99421.69;1696895;83;20939;-43
2021/08/08 08:19:53;;;;;;;3.65;1.75;;;;;;;26.27;39.63;99426.52;1695840;83;21677;-43
2021/08/08 08:22:20;;;;;;;2.27;1.80;;;;;;;26.38;39.97;99426.80;1683030;84;21141;-43
2021/08/08 08:24:47;;;;;;;2.40;1.47;;;;;;;26.51;39.72;99423.09;1673032;83;20980;-43
2021/08/08 08:27:14;;;;;;;3.75;1.82;;;;;;;26.60;39.01;99423.06;1679133;84;21384;-43
2021/08/08 08:29:42;;;;;;;2.90;1.70;;;;;;;26.71;39.68;99420.58;1700980;84;20991;-43
2021/08/08 08:32:08;;;;;;;4.35;1.67;;;;;;;26.87;39.42;99419.48;1682240;84;21062;-43
2021/08/08 08:34:36;;;;;;;2.70;1.90;;;;;;;26.94;39.02;99412.95;1685031;84;21618;-43
2021/08/08 08:37:04;;;;;;;4.55;1.75;;;;;;;27.04;38.78;99419.26;1684703;84;20981;-43
2021/08/08 08:39:31;;;;;;;1.85;1.50;;;;;;;27.15;38.67;99418.91;1684886;85;21077;-43
2021/08/08 08:42:00;;;;;;;3.40;1.70;;;;;;;27.31;38.68;99415.56;1717472;83;20976;-43
2021/08/08 08:44:29;;;;;;;5.17;2.02;;;;;;;27.40;37.54;99416.94;1695768;83;21104;-43
2021/08/08 08:46:58;;;;;;;3.10;1.80;;;;;;;27.37;36.89;99409.52;1701677;83;21170;-43
2021/08/08 08:49:27;;;;;;;1.92;1.60;;;;;;;27.39;38.07;99416.78;1712278;83;21577;-43
2021/08/08 08:51:57;;;;;;;;;;;;;;;27.43;37.75;99409.02;1705950;83;21062;-43
2021/08/08 08:54:24;;;;;;;6.25;1.90;;;;;;;27.44;36.97;99410.57;1678279;83;20206;-43
2021/08/08 08:56:51;;;;;;;3.42;1.85;;;;;;;27.40;38.25;99411.37;1690413;84;21047;-43
2021/08/08 08:59:19;;;;;;;2.87;1.87;;;;;;;27.54;39.04;99415.64;1690140;84;21148;-43
2021/08/08 09:01:47;;;;;;;3.00;1.85;;;;;;;27.69;38.78;99417.10;1695082;84;21012;-43
2021/08/08 09:04:14;;;;;;;3.92;1.70;;;;;;;27.86;38.80;99413.25;1695269;84;21486;-43
2021/08/08 09:06:41;;;;;;;3.20;1.67;;;;;;;28.00;38.33;99413.91;1691741;84;21098;-43
2021/08/08 09:09:08;;;;;;;4.20;1.98;;;;;;;28.14;37.06;99417.39;1691812;84;21044;-43
2021/08/08 09:11:42;;;;;;;2.20;1.57;;;;;;;28.20;36.46;99409.91;1694292;84;21140;-43
2021/08/08 09:14:15;;;;;;;4.35;2.15;;;;;;;28.27;36.53;99408.13;1690376;84;20960;-43
2021/08/08 09:16:53;;;;;;;2.75;1.70;;;;;;;28.32;36.33;99402.53;1682044;84;21018;-43
2021/08/08 09:19:28;;;;;;;;;;;;;;;28.38;36.09;99408.34;1673417;84;21002;-43
2021/08/08 09:21:58;;;;;;;2.92;1.80;;;;;;;28.44;36.06;99407.05;1682984;83;20201;-43
2021/08/08 09:24:35;;;;;;;2.00;1.65;;;;;;;28.41;36.79;99399.66;1673415;85;21548;-43
2021/08/08 09:27:11;;;;;;;1.85;1.70;;;;;;;28.51;36.43;99403.23;1674128;85;21357;-43
2021/08/08 09:29:44;;;;;;;2.10;1.90;;;;;;;28.62;36.82;99404.06;1672617;84;21046;-43
2021/08/08 09:32:11;;;;;;;2.65;2.08;;;;;;;28.65;35.61;99407.30;1674548;84;21109;-43
2021/08/08 09:34:40;;;;;;;2.90;1.95;;;;;;;28.62;35.49;99401.90;1671130;84;21066;-43
2021/08/08 09:37:21;;;;;;;4.45;2.42;;;;;;;28.62;36.30;99395.70;1686315;84;21134;-43
2021/08/08 09:39:54;;;;;;;2.75;1.95;;;;;;;28.58;36.09;99400.70;1682158;84;20993;-43
2021/08/08 09:42:25;;;;;;;3.12;1.90;;;;;;;28.49;35.91;99396.00;1678795;85;21571;-43
2021/08/08 09:45:04;;;;;;;2.02;1.77;;;;;;;28.37;34.79;99390.72;1672769;84;21028;-43
2021/08/08 09:47:46;;;;;;;4.75;1.87;;;;;;;28.31;35.31;99381.47;1659515;84;21081;-43
2021/08/08 09:50:18;;;;;;;2.95;2.10;;;;;;;28.31;34.94;99384.26;1684743;85;21153;-43
2021/08/08 09:52:57;;;;;;;3.12;2.60;;;;;;;28.40;35.99;99382.14;1683886;84;20998;-43
2021/08/08 09:55:31;;;;;;;4.35;1.87;;;;;;;28.58;35.54;99378.39;1697264;84;21024;-43
2021/08/08 09:57:58;;;;;;;3.62;1.95;;;;;;;28.63;35.37;99378.34;1658761;86;21052;-43
2021/08/08 10:00:34;;;;;;;3.27;1.95;;;;;;;28.71;36.14;99375.31;1713593;81;21009;-43
2021/08/08 10:03:05;;;;;;;2.70;1.80;;;;;;;28.89;36.40;99374.50;1724448;81;21578;-43
2021/08/08 10:05:40;;;;;;;2.42;1.85;;;;;;;29.11;36.10;99371.89;1716394;81;21009;-43
2021/08/08 10:08:12;;;;;;;2.00;1.70;;;;;;;29.30;34.53;99373.17;1723567;81;20996;-43
2021/08/08 10:10:41;;;;;;;2.77;1.80;;;;;;;29.38;35.53;99375.75;1734827;81;20964;-43
2021/08/08 10:13:33;;;;;;;2.70;1.85;;;;;;;29.58;35.74;99377.13;1733618;82;21080;-43
2021/08/08 10:16:00;;;;;;;2.70;1.77;;;;;;;29.80;34.54;99377.42;1735077;81;21132;-43
2021/08/08 10:18:37;;;;;;;2.65;1.90;;;;;;;30.12;33.92;99376.14;1726284;81;21037;-43
2021/08/08 10:21:06;;;;;;;2.08;1.80;;;;;;;30.35;32.51;99393.30;1720459;83;21223;-43
2021/08/08 10:23:33;;;;;;;4.07;2.00;;;;;;;30.35;32.50;99388.34;1721342;83;21504;-43
2021/08/08 10:26:00;;;;;;;2.47;1.67;;;;;;;30.25;32.12;99379.34;1739842;81;21087;-43
2021/08/08 10:28:26;;;;;;;2.72;1.80;;;;;;;30.19;32.67;99379.91;1745935;81;21136;-43
2021/08/08 10:30:53;;;;;;;2.40;1.98;;;;;;;30.28;33.01;99382.55;1733088;82;20929;-43
2021/08/08 10:33:19;;;;;;;2.10;1.85;;;;;;;30.30;32.28;99389.81;1718746;82;20989;-43
2021/08/08 10:35:47;;;;;;;2.00;1.77;;;;;;;30.43;32.45;99379.00;1737566;81;21131;-43
2021/08/08 10:38:15;;;;;;;9.00;2.22;;;;;;;30.60;32.78;99388.33;1726643;81;21052;-43
2021/08/08 10:40:43;;;;;;;2.98;2.00;;;;;;;30.81;32.64;99388.25;1686524;83;21053;-44
2021/08/08 10:43:27;;;;;;;2.15;1.70;;;;;;;31.11;32.42;99384.56;1681869;82;21001;-44
2021/08/08 10:46:07;;;;;;;2.58;1.85;;;;;;;31.40;32.44;99386.39;1714024;82;21037;-43
2021/08/08 10:48:40;;;;;;;1.90;1.70;;;;;;;31.59;31.77;99390.20;1724029;82;20952;-43
2021/08/08 10:51:25;;;;;;;3.87;1.87;;;;;;;31.75;31.11;99395.12;1731543;82;21060;-43
2021/08/08 10:54:06;;;;;;;2.67;1.90;;;;;;;31.85;30.82;99389.44;1647664;86;21121;-43
2021/08/08 10:56:48;;;;;;;2.20;1.95;;;;;;;31.99;30.54;99389.86;1707220;82;21590;-44
2021/08/08 10:59:20;;;;;;;2.05;1.65;;;;;;;32.08;29.83;99390.27;1677136;85;20964;-43
2021/08/08 11:02:08;;;;;;;2.62;2.05;;;;;;;32.18;30.14;99389.55;1661029;85;20965;-44
2021/08/08 11:04:36;;;;;;;3.58;1.77;;;;;;;32.26;30.80;99386.38;1661046;85;21100;-44
2021/08/08 11:07:05;;;;;;;2.22;1.80;;;;;;;32.43;30.72;99394.06;1711915;83;20961;-44
2021/08/08 11:09:33;;;;;;;2.35;2.05;;;;;;;32.71;29.86;99390.66;1711698;83;21619;-44
2021/08/08 11:12:00;;;;;;;3.42;1.98;;;;;;;33.05;29.35;99386.55;1711389;83;21028;-44
2021/08/08 11:14:27;;;;;;;3.47;1.85;;;;;;;33.45;29.93;99390.08;1705197;83;21056;-44
2021/08/08 11:17:03;;;;;;;3.00;1.70;;;;;;;33.85;29.53;99386.61;1713406;83;21080;-44
2021/08/08 11:19:36;;;;;;;3.90;1.90;;;;;;;34.15;28.11;99383.13;1713730;82;21102;-44
2021/08/08 11:22:13;;;;;;;2.17;1.87;;;;;;;34.09;27.96;99388.02;1713738;83;20950;-43
2021/08/08 11:24:43;;;;;;;1.75;1.65;;;;;;;33.87;27.94;99395.30;1713791;83;21049;-43
2021/08/08 11:27:10;;;;;;;2.20;2.00;;;;;;;33.92;28.08;99386.72;1679161;85;21651;-43
2021/08/08 11:29:38;;;;;;;4.35;1.82;;;;;;;34.16;27.83;99384.66;1713550;83;21073;-43
2021/08/08 11:32:07;;;;;;;3.67;1.90;;;;;;;34.31;27.64;99382.30;1729979;82;21082;-43
2021/08/08 11:34:33;;;;;;;2.95;1.70;;;;;;;34.53;26.24;99379.31;1713722;82;21026;-42
2021/08/08 11:37:00;;;;;;;4.10;1.90;;;;;;;34.61;26.59;99384.52;1688516;82;21544;-43
2021/08/08 11:39:35;;;;;;;3.60;2.00;;;;;;;34.63;26.95;99386.14;1676100;83;21058;-43
2021/08/08 11:42:07;;;;;;;3.42;1.55;;;;;;;34.70;27.45;99391.25;1750995;82;21029;-43